createdAt,value
2023-02-11T00:00:59.390Z,13.00
2023-02-11T00:03:28.414Z,13.30
2023-02-11T00:06:01.175Z,13.90
2023-02-11T00:08:29.967Z,13.50
2023-02-11T00:10:58.868Z,13.10
2023-02-11T00:13:30.507Z,12.60
2023-02-11T00:16:10.389Z,12.60
2023-02-11T00:18:45.002Z,11.90
2023-02-11T00:21:18.764Z,12.30
2023-02-11T00:23:50.347Z,12.90
2023-02-11T00:26:24.179Z,13.20
2023-02-11T00:28:53.051Z,14.00
2023-02-11T00:31:22.595Z,13.80
2023-02-11T00:34:02.795Z,13.10
2023-02-11T00:36:37.624Z,13.00
2023-02-11T00:39:09.488Z,12.80
2023-02-11T00:41:39.196Z,11.40
2023-02-11T00:44:10.140Z,12.10
2023-02-11T00:46:38.849Z,13.70
2023-02-11T00:49:07.613Z,13.20
2023-02-11T00:51:40.616Z,12.00
2023-02-11T00:54:09.497Z,13.90
2023-02-11T00:59:09.528Z,12.70
2023-02-11T01:01:43.274Z,12.80
2023-02-11T01:04:12.129Z,13.50
2023-02-11T01:06:41.115Z,13.00
2023-02-11T01:09:10.008Z,13.00
2023-02-11T01:11:41.666Z,12.80
2023-02-11T01:14:12.809Z,13.20
2023-02-11T01:16:41.700Z,10.60
2023-02-11T01:19:12.945Z,12.90
2023-02-11T01:21:48.519Z,13.30
2023-02-11T01:24:24.059Z,12.80
2023-02-11T01:26:56.108Z,12.20
2023-02-11T01:29:34.334Z,12.10
2023-02-11T01:32:03.464Z,12.60
2023-02-11T01:34:41.325Z,13.20
2023-02-11T01:37:10.204Z,12.00
2023-02-11T01:39:41.247Z,13.40
2023-02-11T01:42:15.823Z,13.10
2023-02-11T01:44:51.625Z,12.80
2023-02-11T01:47:23.074Z,10.60
2023-02-11T01:49:59.477Z,12.00
2023-02-11T01:52:33.368Z,11.70
2023-02-11T01:55:27.535Z,12.10
2023-02-11T01:58:01.549Z,13.10
2023-02-11T02:00:38.330Z,13.10
2023-02-11T02:03:27.008Z,12.70
2023-02-11T02:06:17.270Z,12.60
2023-02-11T02:09:22.605Z,11.50
2023-02-11T02:11:51.306Z,11.20
2023-02-11T02:14:29.101Z,11.20
2023-02-11T02:17:02.395Z,11.30
2023-02-11T02:20:09.689Z,12.40
2023-02-11T02:22:54.270Z,12.40
2023-02-11T02:25:33.476Z,13.20
2023-02-11T02:28:22.473Z,14.40
2023-02-11T02:31:09.889Z,13.90
2023-02-11T02:33:46.888Z,13.90
2023-02-11T02:36:21.539Z,13.70
2023-02-11T02:39:18.726Z,13.10
2023-02-11T02:41:47.620Z,12.70
2023-02-11T02:44:19.786Z,12.90
2023-02-11T02:46:48.906Z,12.50
2023-02-11T02:49:19.903Z,14.00
2023-02-11T02:51:54.689Z,10.70
2023-02-11T02:54:26.112Z,14.80
2023-02-11T02:57:30.776Z,15.80
2023-02-11T03:00:24.574Z,12.70
2023-02-11T03:03:24.885Z,14.80
2023-02-11T03:05:57.257Z,14.40
2023-02-11T03:08:28.351Z,14.80
2023-02-11T03:10:59.501Z,15.30
2023-02-11T03:13:33.683Z,15.10
2023-02-11T03:16:27.473Z,15.80
2023-02-11T03:19:22.459Z,15.40
2023-02-11T03:21:52.118Z,13.60
2023-02-11T03:24:37.210Z,14.20
2023-02-11T03:27:16.119Z,14.10
2023-02-11T03:30:01.707Z,14.10
2023-02-11T03:32:41.305Z,13.90
2023-02-11T03:35:36.766Z,14.90
2023-02-11T03:38:20.599Z,14.80
2023-02-11T03:40:51.311Z,14.60
2023-02-11T03:43:29.283Z,14.10
2023-02-11T03:46:00.612Z,12.60
2023-02-11T03:48:36.782Z,12.30
2023-02-11T03:51:09.628Z,10.50
2023-02-11T03:53:42.665Z,12.70
2023-02-11T03:56:13.806Z,12.70
2023-02-11T04:01:19.220Z,11.80
2023-02-11T04:03:48.116Z,12.80
2023-02-11T04:06:19.790Z,11.90
2023-02-11T04:08:51.424Z,10.70
2023-02-11T04:11:25.304Z,12.40
2023-02-11T04:14:13.801Z,12.90
2023-02-11T04:16:47.318Z,13.50
2023-02-11T04:19:18.984Z,13.00
2023-02-11T04:21:47.542Z,13.80
2023-02-11T04:24:19.136Z,13.50
2023-02-11T04:26:47.657Z,12.90
2023-02-11T04:29:16.246Z,12.00
2023-02-11T04:31:47.630Z,12.20
2023-02-11T04:34:17.986Z,11.00
2023-02-11T04:36:51.929Z,12.00
2023-02-11T04:39:23.267Z,11.00
2023-02-11T04:42:02.351Z,12.00
2023-02-11T04:44:36.180Z,10.30
2023-02-11T04:47:04.954Z,11.30
2023-02-11T04:49:33.746Z,13.30
2023-02-11T04:52:05.354Z,14.30
2023-02-11T04:54:36.094Z,12.30
2023-02-11T04:57:04.780Z,12.00
2023-02-11T04:59:57.549Z,12.00
2023-02-11T05:02:32.219Z,11.20
2023-02-11T05:05:01.036Z,13.60
2023-02-11T05:07:30.141Z,13.20
2023-02-11T05:10:01.457Z,15.20
2023-02-11T05:12:30.529Z,13.90
2023-02-11T05:14:59.005Z,13.50
2023-02-11T05:17:27.440Z,13.30
2023-02-11T05:19:56.124Z,12.90
2023-02-11T05:22:24.809Z,12.80
2023-02-11T05:24:53.406Z,13.60
2023-02-11T05:27:21.715Z,16.60
2023-02-11T05:29:50.048Z,15.30
2023-02-11T05:32:22.895Z,14.30
2023-02-11T05:34:51.885Z,16.10
2023-02-11T05:37:20.608Z,13.80
2023-02-11T05:40:02.262Z,14.40
2023-02-11T05:42:33.738Z,13.50
2023-02-11T05:45:04.945Z,13.50
2023-02-11T05:47:46.617Z,12.80
2023-02-11T05:50:15.716Z,12.20
2023-02-11T05:52:54.392Z,12.50
2023-02-11T05:55:44.423Z,12.30
2023-02-11T05:58:19.255Z,13.50
2023-02-11T06:00:48.144Z,13.30
2023-02-11T06:05:51.834Z,11.80
2023-02-11T06:08:23.212Z,11.50
2023-02-11T06:10:55.217Z,10.80
2023-02-11T06:13:26.936Z,13.10
2023-02-11T06:15:57.868Z,13.80
2023-02-11T06:18:29.843Z,12.50
2023-02-11T06:21:09.526Z,12.00
2023-02-11T06:23:46.979Z,12.70
2023-02-11T06:26:23.343Z,13.00
2023-02-11T06:28:55.509Z,12.30
2023-02-11T06:31:24.103Z,12.90
2023-02-11T06:34:03.225Z,13.90
2023-02-11T06:39:35.334Z,13.40
2023-02-11T06:43:31.373Z,13.10
2023-02-11T06:46:30.687Z,14.20
2023-02-11T06:49:55.658Z,12.90
2023-02-11T06:52:23.832Z,12.20
2023-02-11T06:54:55.223Z,12.90
2023-02-11T06:57:23.662Z,13.20
2023-02-11T07:00:33.619Z,13.30
2023-02-11T07:03:11.703Z,14.40
2023-02-11T07:06:25.059Z,15.20
2023-02-11T07:08:57.026Z,12.50
2023-02-11T07:11:49.369Z,12.60
2023-02-11T07:14:18.150Z,13.40
2023-02-11T07:17:15.824Z,13.00
2023-02-11T07:19:53.227Z,13.70
2023-02-11T07:22:56.606Z,12.50
2023-02-11T07:25:45.363Z,13.70
2023-02-11T07:28:22.493Z,14.50
2023-02-11T07:33:20.436Z,13.30
2023-02-11T07:35:49.657Z,14.90
2023-02-11T07:38:38.799Z,14.30
2023-02-11T07:41:09.543Z,15.40
2023-02-11T07:43:41.191Z,14.60
2023-02-11T07:46:12.130Z,14.80
2023-02-11T07:48:40.796Z,15.40
2023-02-11T07:51:25.762Z,15.30
2023-02-11T07:54:01.639Z,16.40
2023-02-11T07:56:30.419Z,15.70
2023-02-11T07:59:03.634Z,15.60
2023-02-11T08:01:33.588Z,15.50
2023-02-11T08:04:02.591Z,14.90
2023-02-11T08:06:33.516Z,14.30
2023-02-11T08:09:12.566Z,14.90
2023-02-11T08:11:53.213Z,14.60
2023-02-11T08:14:21.897Z,15.60
2023-02-11T08:16:56.419Z,16.30
2023-02-11T08:19:27.039Z,14.80
2023-02-11T08:22:01.778Z,14.60
2023-02-11T08:24:37.017Z,15.90
2023-02-11T08:27:29.148Z,15.10
2023-02-11T08:30:03.028Z,15.10
2023-02-11T08:32:32.398Z,16.80
2023-02-11T08:35:03.843Z,15.00
2023-02-11T08:37:34.779Z,15.80
2023-02-11T08:40:03.438Z,14.70
2023-02-11T08:42:37.179Z,16.10
2023-02-11T08:45:19.199Z,16.70
2023-02-11T08:47:53.308Z,17.40
2023-02-11T08:50:27.425Z,16.60
2023-02-11T08:52:56.284Z,15.90
2023-02-11T08:55:30.546Z,15.80
2023-02-11T08:58:19.306Z,17.40
2023-02-11T09:00:57.422Z,16.60
2023-02-11T09:03:36.918Z,16.40
2023-02-11T09:06:07.158Z,16.00
2023-02-11T09:08:37.154Z,16.10
2023-02-11T09:11:06.151Z,13.70
2023-02-11T09:13:34.941Z,16.40
2023-02-11T09:16:05.130Z,17.10
2023-02-11T09:18:33.916Z,15.30
2023-02-11T09:21:08.995Z,16.10
2023-02-11T09:23:37.759Z,14.50
2023-02-11T09:26:14.028Z,15.90
2023-02-11T09:28:42.911Z,16.70
2023-02-11T09:31:15.885Z,18.40
2023-02-11T09:33:48.112Z,16.80
2023-02-11T09:36:38.571Z,17.00
2023-02-11T09:39:29.707Z,13.40
2023-02-11T09:42:32.728Z,17.60
2023-02-11T09:45:35.266Z,16.40
2023-02-11T09:48:13.705Z,17.20
2023-02-11T09:51:42.776Z,14.30
2023-02-11T09:54:29.215Z,15.30
2023-02-11T09:56:57.947Z,18.10
2023-02-11T09:59:33.209Z,17.80
2023-02-11T10:02:26.962Z,21.10
2023-02-11T10:05:28.174Z,21.00
2023-02-11T10:08:33.241Z,17.80
2023-02-11T10:11:19.992Z,17.60
2023-02-11T10:14:16.718Z,21.90
2023-02-11T10:17:08.646Z,18.40
2023-02-11T10:20:17.178Z,17.50
2023-02-11T10:22:58.298Z,17.90
2023-02-11T10:25:45.506Z,18.70
2023-02-11T10:28:25.272Z,20.80
2023-02-11T10:31:06.775Z,19.20
2023-02-11T10:33:59.636Z,19.10
2023-02-11T10:36:57.799Z,18.30
2023-02-11T10:39:45.295Z,19.00
2023-02-11T10:42:14.010Z,17.00
2023-02-11T10:45:32.695Z,17.60
2023-02-11T10:48:07.484Z,18.30
2023-02-11T10:51:14.314Z,16.20
2023-02-11T10:53:59.245Z,15.20
2023-02-11T10:56:28.006Z,15.20
2023-02-11T10:59:56.231Z,16.90
2023-02-11T11:02:34.771Z,16.40
2023-02-11T11:05:07.990Z,16.40
2023-02-11T11:07:43.669Z,15.50
2023-02-11T11:10:34.986Z,16.10
2023-02-11T11:13:24.050Z,16.90
2023-02-11T11:16:23.142Z,17.40
2023-02-11T11:19:13.806Z,16.20
2023-02-11T11:21:52.372Z,15.70
2023-02-11T11:25:01.734Z,16.10
2023-02-11T11:27:48.908Z,16.40
2023-02-11T11:30:18.000Z,17.80
2023-02-11T11:32:56.728Z,17.40
2023-02-11T11:35:30.047Z,16.80
2023-02-11T11:38:06.327Z,17.90
2023-02-11T11:40:36.425Z,17.30
2023-02-11T11:43:23.286Z,18.80
2023-02-11T11:45:59.369Z,18.00
2023-02-11T11:48:40.948Z,18.00
2023-02-11T11:51:11.220Z,29.60
2023-02-11T11:53:55.584Z,18.20
2023-02-11T11:56:32.690Z,19.70
2023-02-11T11:59:18.902Z,19.10
2023-02-11T12:01:54.562Z,17.70
2023-02-11T12:04:33.483Z,16.00
2023-02-11T12:07:36.919Z,20.10
2023-02-11T12:10:15.090Z,17.40
2023-02-11T12:13:09.504Z,16.60
2023-02-11T12:15:54.373Z,17.90
2023-02-11T12:18:47.840Z,15.20
2023-02-11T12:21:54.931Z,17.20
2023-02-11T12:24:52.487Z,16.50
2023-02-11T12:27:45.733Z,17.20
2023-02-11T12:30:39.520Z,17.10
2023-02-11T12:33:23.119Z,16.30
2023-02-11T12:36:27.953Z,22.50
2023-02-11T12:39:16.229Z,18.10
2023-02-11T12:42:06.708Z,18.10
2023-02-11T12:45:11.341Z,21.20
2023-02-11T12:47:41.459Z,19.90
2023-02-11T12:50:32.745Z,22.40
2023-02-11T12:53:13.165Z,17.60
2023-02-11T12:55:48.395Z,17.10
2023-02-11T12:58:35.472Z,22.80
2023-02-11T13:01:39.351Z,22.60
2023-02-11T13:04:33.601Z,22.30
2023-02-11T13:07:12.531Z,18.80
2023-02-11T13:09:54.668Z,15.70
2023-02-11T13:12:44.089Z,14.20
2023-02-11T13:15:15.905Z,17.10
2023-02-11T13:18:31.846Z,16.50
2023-02-11T13:21:27.280Z,14.20
2023-02-11T13:24:44.625Z,16.70
2023-02-11T13:27:41.649Z,15.10
2023-02-11T13:30:30.539Z,17.20
2023-02-11T13:33:17.719Z,16.50
2023-02-11T13:36:08.639Z,14.00
2023-02-11T13:38:39.804Z,12.70
2023-02-11T13:41:29.265Z,16.60
2023-02-11T13:44:02.061Z,14.60
2023-02-11T13:47:07.876Z,12.30
2023-02-11T13:49:50.871Z,12.20
2023-02-11T13:52:56.854Z,10.80
2023-02-11T13:55:26.464Z,11.20
2023-02-11T13:58:27.699Z,10.60
2023-02-11T14:01:06.967Z,12.10
2023-02-11T16:11:09.293Z,11.90
2023-02-11T16:13:46.470Z,11.30
2023-02-11T16:16:19.985Z,11.00
2023-02-11T16:19:04.638Z,10.70
2023-02-11T16:21:39.469Z,11.00
2023-02-11T16:24:18.401Z,10.70
2023-02-11T16:26:49.438Z,12.20
2023-02-11T16:29:23.971Z,11.90
2023-02-11T16:31:53.320Z,11.10
2023-02-11T16:34:25.538Z,11.80
2023-02-11T16:36:57.513Z,12.20
2023-02-11T16:41:55.487Z,11.40
2023-02-11T16:44:24.278Z,12.10
2023-02-11T16:46:53.521Z,12.30
2023-02-11T16:49:33.374Z,12.90
2023-02-11T16:52:13.686Z,12.60
2023-02-11T16:54:45.550Z,13.60
2023-02-11T16:57:22.112Z,13.10
2023-02-11T16:59:50.802Z,13.60
2023-02-11T17:02:41.090Z,12.60
2023-02-11T17:05:20.308Z,13.20
2023-02-11T17:07:53.924Z,14.30
2023-02-11T17:10:25.661Z,12.90
2023-02-11T17:12:56.846Z,13.50
2023-02-11T17:15:25.735Z,13.00
2023-02-11T17:17:58.740Z,13.00
2023-02-11T17:20:27.412Z,13.70
2023-02-11T17:22:55.892Z,13.80
2023-02-11T17:25:25.301Z,13.70
2023-02-11T17:27:57.543Z,14.40
2023-02-11T17:30:29.117Z,14.80
2023-02-11T17:33:00.365Z,12.90
2023-02-11T17:35:29.052Z,12.60
2023-02-11T17:38:03.003Z,12.90
2023-02-11T17:40:32.312Z,13.40
2023-02-11T17:43:00.789Z,14.40
2023-02-11T17:45:30.854Z,17.10
2023-02-11T17:48:09.786Z,19.20
2023-02-11T17:50:51.240Z,15.40
2023-02-11T17:53:20.741Z,15.60
2023-02-11T17:55:49.633Z,18.90
2023-02-11T17:58:19.016Z,19.70
2023-02-11T18:00:48.019Z,16.80
2023-02-11T18:03:16.805Z,16.00
2023-02-11T18:05:46.203Z,14.40
2023-02-11T18:08:14.992Z,13.70
2023-02-11T18:10:47.162Z,15.40
2023-02-11T18:13:16.262Z,15.50
2023-02-11T18:15:50.279Z,15.40
2023-02-11T18:18:21.514Z,14.80
2023-02-11T18:21:13.906Z,11.30
2023-02-11T18:23:50.442Z,13.90
2023-02-11T18:26:20.613Z,12.90
2023-02-11T18:29:12.268Z,14.90
2023-02-11T18:31:48.799Z,15.50
2023-02-11T18:34:23.013Z,14.00
2023-02-11T18:36:51.631Z,13.60
2023-02-11T18:39:24.455Z,14.50
2023-02-11T18:42:05.220Z,14.40
2023-02-11T18:44:56.159Z,14.20
2023-02-11T18:47:27.733Z,13.70
2023-02-11T18:49:56.708Z,13.00
2023-02-11T18:52:24.984Z,13.80
2023-02-11T18:54:56.231Z,12.90
2023-02-11T18:57:27.799Z,12.70
2023-02-11T18:59:57.393Z,12.10
2023-02-11T19:02:29.560Z,12.50
2023-02-11T19:04:57.914Z,14.20
2023-02-11T19:07:26.412Z,12.80
2023-02-11T19:09:54.979Z,13.30
2023-02-11T19:12:33.765Z,13.50
2023-02-11T19:15:07.775Z,12.80
2023-02-11T19:17:37.078Z,13.50
2023-02-11T19:20:16.013Z,14.30
2023-02-11T19:22:53.458Z,12.30
2023-02-11T19:25:24.212Z,12.60
2023-02-11T19:27:53.030Z,13.60
2023-02-11T19:30:21.925Z,12.60
2023-02-11T19:32:52.870Z,12.50
2023-02-11T19:35:21.753Z,14.20
2023-02-11T19:37:53.102Z,13.50
2023-02-11T19:42:59.414Z,13.70
2023-02-11T19:45:31.274Z,13.40
2023-02-11T19:50:31.926Z,14.00
2023-02-11T19:53:21.206Z,15.80
2023-02-11T19:55:57.710Z,14.10
2023-02-11T19:58:29.867Z,14.30
2023-02-11T20:01:24.904Z,13.90
2023-02-11T20:03:54.333Z,13.90
2023-02-11T20:06:34.233Z,14.80
2023-02-11T20:09:10.271Z,13.80
2023-02-11T20:11:39.081Z,14.50
2023-02-11T20:14:12.636Z,14.40
2023-02-11T20:16:48.762Z,15.00
2023-02-11T20:19:21.819Z,16.00
2023-02-11T20:21:56.006Z,15.40
2023-02-11T20:24:25.829Z,14.90
2023-02-11T20:26:57.595Z,14.40
2023-02-11T20:29:33.600Z,17.40
2023-02-11T20:32:03.643Z,14.20
2023-02-11T20:34:32.506Z,13.70
2023-02-11T20:37:04.282Z,13.90
2023-02-11T20:39:37.457Z,14.90
2023-02-11T20:42:11.801Z,13.50
2023-02-11T20:44:40.790Z,15.00
2023-02-11T20:47:11.912Z,13.60
2023-02-11T20:49:41.120Z,13.20
2023-02-11T20:52:09.901Z,15.00
2023-02-11T20:54:45.554Z,14.40
2023-02-11T20:57:14.855Z,15.40
2023-02-11T20:59:46.715Z,15.10
2023-02-11T21:02:16.527Z,17.10
2023-02-11T21:04:45.518Z,15.40
2023-02-11T21:07:14.361Z,14.40
2023-02-11T21:09:43.430Z,14.20
2023-02-11T21:12:14.701Z,16.10
2023-02-11T21:14:46.563Z,14.00
2023-02-11T21:17:18.725Z,14.20
2023-02-11T21:19:47.229Z,13.20
2023-02-11T21:22:24.821Z,14.40
2023-02-11T21:24:57.081Z,14.50
2023-02-11T21:27:37.002Z,11.90
2023-02-11T21:30:07.296Z,14.80
2023-02-11T21:32:35.938Z,14.30
2023-02-11T21:35:24.694Z,15.20
2023-02-11T21:37:56.250Z,14.20
2023-02-11T21:40:29.633Z,14.50
2023-02-11T21:42:57.913Z,15.20
2023-02-11T21:45:26.801Z,14.10
2023-02-11T21:47:55.532Z,14.20
2023-02-11T21:50:27.236Z,15.40
2023-02-11T21:52:56.520Z,14.90
2023-02-11T21:55:25.228Z,14.40
2023-02-11T21:57:53.860Z,14.90
2023-02-11T22:00:22.447Z,15.00
2023-02-11T22:02:50.987Z,16.00
2023-02-11T22:05:40.071Z,13.30
2023-02-11T22:08:09.091Z,14.30
2023-02-11T22:10:39.135Z,13.40
2023-02-11T22:13:08.062Z,14.10
2023-02-11T22:15:36.851Z,14.70
2023-02-11T22:18:25.337Z,14.80
2023-02-11T22:21:02.546Z,13.80
2023-02-11T22:23:34.407Z,13.60
2023-02-11T22:26:07.834Z,13.90
2023-02-11T22:28:43.254Z,13.10
2023-02-11T22:31:22.295Z,14.90
2023-02-11T22:33:58.928Z,12.80
2023-02-11T22:36:35.492Z,15.50
2023-02-11T22:39:14.262Z,14.10
2023-02-11T22:42:14.813Z,13.60
2023-02-11T22:44:46.208Z,18.40
2023-02-11T22:47:55.055Z,17.30
2023-02-11T22:50:44.241Z,15.00
2023-02-11T22:53:29.032Z,12.40
2023-02-11T22:56:16.124Z,14.00
2023-02-11T22:58:50.849Z,14.30
2023-02-11T23:01:36.780Z,16.20
2023-02-11T23:04:15.328Z,14.50
2023-02-11T23:06:50.635Z,14.20
2023-02-11T23:09:21.822Z,15.80
2023-02-11T23:12:04.911Z,12.80
2023-02-11T23:14:36.565Z,12.50
2023-02-11T23:17:08.228Z,11.60
2023-02-11T23:20:08.022Z,11.00
2023-02-11T23:23:20.439Z,10.00
2023-02-11T23:26:19.720Z,11.30
2023-02-11T23:28:53.654Z,10.90
2023-02-11T23:32:27.791Z,10.50
2023-02-11T23:35:23.677Z,9.20
2023-02-11T23:38:11.900Z,9.90
2023-02-11T23:41:08.120Z,9.80
2023-02-11T23:43:50.229Z,9.40
2023-02-11T23:46:54.357Z,8.80
2023-02-11T23:50:11.898Z,9.00
2023-02-11T23:52:56.333Z,9.80
2023-02-11T23:56:12.764Z,8.30
2023-02-11T23:58:46.466Z,8.30
